createdAt,value
2019-01-16T00:00:16.189Z,22.23
2019-01-16T00:02:49.062Z,20.97
2019-01-16T00:05:19.378Z,19.77
2019-01-16T00:07:49.493Z,20.47
2019-01-16T00:10:22.237Z,19.77
2019-01-16T00:12:53.843Z,19.83
2019-01-16T00:15:27.291Z,18.17
2019-01-16T00:18:02.534Z,16.57
2019-01-16T00:20:38.516Z,19.07
2019-01-16T00:23:08.896Z,18.73
2019-01-16T00:25:41.406Z,19.33
2019-01-16T00:28:17.591Z,21.07
2019-01-16T00:30:48.102Z,18.87
2019-01-16T00:33:39.224Z,14.73
2019-01-16T00:36:29.332Z,19.63
2019-01-16T00:39:00.580Z,11.33
2019-01-16T00:41:37.614Z,15.13
2019-01-16T00:44:14.279Z,17.60
2019-01-16T00:46:53.614Z,14.30
2019-01-16T00:49:43.952Z,16.03
2019-01-16T00:52:16.748Z,15.27
2019-01-16T00:54:54.752Z,17.07
2019-01-16T00:57:33.780Z,19.00
2019-01-16T01:00:17.744Z,13.50
2019-01-16T01:02:57.462Z,20.37
2019-01-16T01:05:36.638Z,15.70
2019-01-16T01:08:23.323Z,16.07
2019-01-16T01:10:59.561Z,18.70
2019-01-16T01:13:29.783Z,18.27
2019-01-16T01:16:16.289Z,10.37
2019-01-16T01:18:48.972Z,17.03
2019-01-16T01:21:19.220Z,22.80
2019-01-16T01:23:55.310Z,14.43
2019-01-16T01:26:28.340Z,11.20
2019-01-16T01:28:58.682Z,18.23
2019-01-16T01:31:36.342Z,17.03
2019-01-16T01:34:06.661Z,12.10
2019-01-16T01:36:43.334Z,13.40
2019-01-16T01:39:28.724Z,16.93
2019-01-16T01:42:15.210Z,11.47
2019-01-16T01:44:58.730Z,16.03
2019-01-16T01:47:28.879Z,13.10
2019-01-16T01:50:04.798Z,17.27
2019-01-16T01:52:51.360Z,15.17
2019-01-16T01:55:21.484Z,15.60
2019-01-16T01:57:57.608Z,14.80
2019-01-16T02:00:36.680Z,13.07
2019-01-16T02:03:23.219Z,12.67
2019-01-16T02:05:53.760Z,16.53
2019-01-16T02:08:30.350Z,11.43
2019-01-16T02:11:03.854Z,13.40
2019-01-16T02:13:34.297Z,15.60
2019-01-16T02:16:07.189Z,17.13
2019-01-16T02:18:39.319Z,13.93
2019-01-16T02:21:15.118Z,20.07
2019-01-16T02:23:48.048Z,12.27
2019-01-16T02:26:25.672Z,21.87
2019-01-16T02:28:56.033Z,15.13
2019-01-16T02:31:37.780Z,16.37
2019-01-16T02:34:26.038Z,19.90
2019-01-16T02:36:56.245Z,15.13
2019-01-16T02:39:35.796Z,11.83
2019-01-16T02:42:09.513Z,18.43
2019-01-16T02:44:45.740Z,15.43
2019-01-16T02:47:29.348Z,11.10
2019-01-16T02:50:07.402Z,13.80
2019-01-16T02:52:59.684Z,20.33
2019-01-16T02:55:33.243Z,17.63
2019-01-16T02:58:12.418Z,13.73
2019-01-16T03:00:58.236Z,14.57
2019-01-16T03:04:02.706Z,13.07
2019-01-16T03:06:49.368Z,11.27
2019-01-16T03:09:35.105Z,9.27
2019-01-16T03:12:06.733Z,11.60
2019-01-16T03:14:51.790Z,8.27
2019-01-16T03:17:28.382Z,14.03
2019-01-16T03:19:58.646Z,7.23
2019-01-16T03:22:39.596Z,10.67
2019-01-16T03:25:12.576Z,8.93
2019-01-16T03:27:57.910Z,3.07
2019-01-16T03:30:58.326Z,5.13
2019-01-16T03:33:31.180Z,12.43
2019-01-16T03:36:11.194Z,6.90
2019-01-16T03:38:46.806Z,5.87
2019-01-16T03:41:26.501Z,5.03
2019-01-16T03:44:08.699Z,4.47
2019-01-16T03:46:51.001Z,5.57
2019-01-16T03:49:30.303Z,6.23
2019-01-16T03:52:12.395Z,4.23
2019-01-16T03:54:54.253Z,5.53
2019-01-16T03:57:24.622Z,4.17
2019-01-16T04:00:10.961Z,4.50
2019-01-16T04:02:56.733Z,5.97
2019-01-16T04:05:40.638Z,2.73
2019-01-16T04:08:14.990Z,4.07
2019-01-16T04:11:07.725Z,6.23
2019-01-16T04:13:58.043Z,5.73
2019-01-16T04:16:34.528Z,3.03
2019-01-16T04:19:10.304Z,4.13
2019-01-16T04:21:40.479Z,2.93
2019-01-16T04:24:18.818Z,4.00
2019-01-16T04:27:07.003Z,5.83
2019-01-16T04:29:42.960Z,2.10
2019-01-16T04:32:17.000Z,2.80
2019-01-16T04:35:02.350Z,2.07
2019-01-16T04:37:35.245Z,3.07
2019-01-16T04:40:23.646Z,5.83
2019-01-16T04:42:54.015Z,3.67
2019-01-16T04:45:42.274Z,1.30
2019-01-16T04:48:17.069Z,1.63
2019-01-16T04:50:47.293Z,3.67
2019-01-16T04:53:29.747Z,2.17
2019-01-16T04:56:12.351Z,5.53
2019-01-16T04:58:51.365Z,5.30
2019-01-16T05:01:30.810Z,9.20
2019-01-16T05:04:09.535Z,7.13
2019-01-16T05:06:39.995Z,6.07
2019-01-16T05:09:19.187Z,3.70
2019-01-16T05:12:05.490Z,3.20
2019-01-16T05:14:35.783Z,3.83
2019-01-16T05:17:05.915Z,4.17
2019-01-16T05:19:42.222Z,6.43
2019-01-16T05:22:12.523Z,4.70
2019-01-16T05:24:45.787Z,3.60
2019-01-16T05:27:16.042Z,6.87
2019-01-16T05:29:54.255Z,8.37
2019-01-16T05:32:24.578Z,5.37
2019-01-16T05:35:00.978Z,5.70
2019-01-16T05:37:34.074Z,5.80
2019-01-16T05:40:07.236Z,5.73
2019-01-16T05:42:37.442Z,7.97
2019-01-16T05:45:08.873Z,2.93
2019-01-16T05:47:41.851Z,4.13
2019-01-16T05:50:12.008Z,7.40
2019-01-16T05:52:58.417Z,5.30
2019-01-16T05:55:31.902Z,4.87
2019-01-16T05:58:05.756Z,7.53
2019-01-16T06:00:52.282Z,6.47
2019-01-16T06:03:42.682Z,6.53
2019-01-16T06:06:27.063Z,6.03
2019-01-16T06:09:07.838Z,5.03
2019-01-16T06:11:41.204Z,8.10
2019-01-16T06:14:15.206Z,7.23
2019-01-16T06:16:57.311Z,3.87
2019-01-16T06:19:36.376Z,11.40
2019-01-16T06:22:18.674Z,4.80
2019-01-16T06:25:00.599Z,7.70
2019-01-16T06:27:47.163Z,8.37
2019-01-16T06:30:30.020Z,4.97
2019-01-16T06:33:10.682Z,8.17
2019-01-16T06:35:43.684Z,5.60
2019-01-16T06:38:13.881Z,10.00
2019-01-16T06:40:53.734Z,8.73
2019-01-16T06:43:23.830Z,10.73
2019-01-16T06:45:54.128Z,7.27
2019-01-16T06:48:33.098Z,7.57
2019-01-16T06:51:03.302Z,8.30
2019-01-16T06:53:51.509Z,7.73
2019-01-16T06:56:24.036Z,7.37
2019-01-16T06:59:03.146Z,10.93
2019-01-16T07:01:53.850Z,6.70
2019-01-16T07:04:23.546Z,11.57
2019-01-16T07:07:02.412Z,13.97
2019-01-16T07:09:41.579Z,11.40
2019-01-16T07:12:20.730Z,10.23
2019-01-16T07:15:13.521Z,8.53
2019-01-16T07:18:01.698Z,14.13
2019-01-16T07:20:31.998Z,13.20
2019-01-16T07:23:20.429Z,15.87
2019-01-16T07:26:04.290Z,17.07
2019-01-16T07:28:40.166Z,12.90
2019-01-16T07:31:26.706Z,12.80
2019-01-16T07:34:21.117Z,18.50
2019-01-16T07:36:51.423Z,19.23
2019-01-16T07:39:24.403Z,16.67
2019-01-16T07:41:57.696Z,20.17
2019-01-16T07:44:27.870Z,20.27
2019-01-16T07:47:00.840Z,20.57
2019-01-16T07:49:42.836Z,19.47
2019-01-16T07:52:29.132Z,27.23
2019-01-16T07:55:15.497Z,20.07
2019-01-16T07:57:51.713Z,24.17
2019-01-16T08:00:36.143Z,19.77
2019-01-16T08:03:06.251Z,19.70
2019-01-16T08:05:36.901Z,24.50
2019-01-16T08:08:16.524Z,24.87
2019-01-16T08:11:11.374Z,25.07
2019-01-16T08:13:59.718Z,23.90
2019-01-16T08:16:31.698Z,29.80
2019-01-16T08:19:17.892Z,24.43
2019-01-16T08:21:57.346Z,30.73
2019-01-16T08:24:56.299Z,25.90
2019-01-16T08:27:37.261Z,25.83
2019-01-16T08:32:53.109Z,32.60
2019-01-16T08:35:39.755Z,29.67
2019-01-16T08:38:15.461Z,33.27
2019-01-16T08:40:55.071Z,26.80
2019-01-16T08:43:42.283Z,33.77
2019-01-16T08:46:12.862Z,29.43
2019-01-16T08:48:47.199Z,30.73
2019-01-16T08:51:20.722Z,32.83
2019-01-16T08:53:53.898Z,33.83
2019-01-16T08:56:40.408Z,37.20
2019-01-16T08:59:13.084Z,30.97
2019-01-16T09:01:59.571Z,37.70
2019-01-16T09:04:32.642Z,26.40
2019-01-16T09:07:03.122Z,40.37
2019-01-16T09:09:58.177Z,32.90
2019-01-16T09:12:45.089Z,29.40
2019-01-16T09:15:15.711Z,27.57
2019-01-16T09:17:49.090Z,27.30
2019-01-16T09:20:22.415Z,30.43
2019-01-16T09:23:00.572Z,29.20
2019-01-16T09:25:47.144Z,28.63
2019-01-16T09:28:20.439Z,28.33
2019-01-16T09:30:57.703Z,26.53
2019-01-16T09:33:31.137Z,31.13
2019-01-16T09:36:13.766Z,26.17
2019-01-16T09:38:46.606Z,29.10
2019-01-16T09:41:30.040Z,30.00
2019-01-16T09:44:29.036Z,20.57
2019-01-16T09:47:17.486Z,28.67
2019-01-16T09:49:50.266Z,28.23
2019-01-16T09:52:29.921Z,26.20
2019-01-16T09:58:13.469Z,29.90
2019-01-16T10:00:49.835Z,30.10
2019-01-16T10:03:40.231Z,28.13
2019-01-16T10:06:32.694Z,28.47
2019-01-16T10:09:03.541Z,35.10
2019-01-16T10:12:01.692Z,36.17
2019-01-16T10:14:44.355Z,34.80
2019-01-16T10:17:31.219Z,30.70
2019-01-16T10:20:36.325Z,33.03
2019-01-16T10:23:09.347Z,30.80
2019-01-16T10:25:47.080Z,37.30
2019-01-16T10:28:20.105Z,47.35
2019-01-16T10:30:50.636Z,44.90
2019-01-16T10:33:36.726Z,40.20
2019-01-16T10:36:15.105Z,36.43
2019-01-16T10:38:56.491Z,38.43
2019-01-16T10:44:02.956Z,40.57
2019-01-16T10:46:47.927Z,38.47
2019-01-16T10:49:26.737Z,36.60
2019-01-16T10:52:00.023Z,31.43
2019-01-16T10:54:48.788Z,37.90
2019-01-16T10:57:35.593Z,44.57
2019-01-16T11:00:10.465Z,43.83
2019-01-16T11:02:50.036Z,40.67
2019-01-16T11:05:49.521Z,44.40
2019-01-16T11:08:05.519Z,42.53
2019-01-16T11:10:51.737Z,49.63
2019-01-16T11:13:37.359Z,40.60
2019-01-16T11:16:27.479Z,42.47
2019-01-16T11:19:05.480Z,51.50
2019-01-16T11:21:44.407Z,39.23
2019-01-16T11:24:42.309Z,42.47
2019-01-16T11:27:28.950Z,50.07
2019-01-16T11:30:32.609Z,36.77
2019-01-16T11:33:11.256Z,47.40
2019-01-16T11:36:07.689Z,49.83
2019-01-16T11:38:56.317Z,39.57
2019-01-16T11:41:27.989Z,39.17
2019-01-16T11:44:39.618Z,38.13
2019-01-16T11:47:20.995Z,40.43
2019-01-16T11:50:13.698Z,36.93
2019-01-16T11:52:38.932Z,37.60
2019-01-16T11:55:28.983Z,31.60
2019-01-16T11:58:14.322Z,30.80
2019-01-16T12:00:50.589Z,31.57
2019-01-16T12:03:24.090Z,34.07
2019-01-16T12:06:01.480Z,24.40
2019-01-16T12:08:34.748Z,33.00
2019-01-16T12:11:15.533Z,36.27
2019-01-16T12:13:55.165Z,26.97
2019-01-16T12:16:25.506Z,24.87
2019-01-16T12:19:03.143Z,31.83
2019-01-16T12:21:41.676Z,28.97
2019-01-16T12:24:21.947Z,26.83
2019-01-16T12:26:48.339Z,28.70
2019-01-16T12:29:31.092Z,27.07
2019-01-16T12:32:04.370Z,24.60
2019-01-16T12:34:53.159Z,29.00
2019-01-16T12:37:52.901Z,18.97
2019-01-16T12:40:01.309Z,28.00
2019-01-16T12:42:53.059Z,25.40
2019-01-16T12:45:46.020Z,26.10
2019-01-16T12:48:22.337Z,24.37
2019-01-16T12:51:01.437Z,21.93
2019-01-16T12:53:34.836Z,21.47
2019-01-16T12:56:17.666Z,23.73
2019-01-16T12:58:58.647Z,22.17
2019-01-16T13:01:42.724Z,22.17
2019-01-16T13:04:31.459Z,19.83
2019-01-16T13:07:30.994Z,19.87
2019-01-16T13:10:14.538Z,24.37
2019-01-16T13:12:56.700Z,20.47
2019-01-16T13:15:27.431Z,21.13
2019-01-16T13:18:12.570Z,21.83
2019-01-16T13:20:55.806Z,20.27
2019-01-16T13:26:53.418Z,23.57
2019-01-16T13:30:00.393Z,32.53
2019-01-16T13:33:03.725Z,25.67
2019-01-16T13:36:21.417Z,26.07
2019-01-16T13:38:49.200Z,26.77
2019-01-16T13:41:35.826Z,29.37
2019-01-16T13:44:26.252Z,22.47
2019-01-16T13:47:32.026Z,27.10
2019-01-16T13:50:11.599Z,22.80
2019-01-16T13:53:07.125Z,33.70
2019-01-16T13:55:53.296Z,23.33
2019-01-16T13:58:24.710Z,25.77
2019-01-16T14:01:20.776Z,30.53
2019-01-16T14:04:03.341Z,24.37
2019-01-16T14:06:35.377Z,29.43
2019-01-16T14:09:13.641Z,25.17
2019-01-16T14:11:56.026Z,26.20
2019-01-16T14:14:38.021Z,30.77
2019-01-16T14:17:09.318Z,25.87
2019-01-16T14:19:48.905Z,22.67
2019-01-16T14:22:24.672Z,24.77
2019-01-16T14:24:55.016Z,32.70
2019-01-16T14:27:25.170Z,28.97
2019-01-16T14:29:55.400Z,29.17
2019-01-16T14:32:25.571Z,32.97
2019-01-16T14:35:12.102Z,32.13
2019-01-16T14:37:45.000Z,34.60
2019-01-16T14:40:31.672Z,39.20
2019-01-16T14:43:11.314Z,42.03
2019-01-16T14:45:59.588Z,47.90
2019-01-16T14:48:32.529Z,42.93
2019-01-16T14:51:03.169Z,38.20
2019-01-16T14:53:33.409Z,39.43
2019-01-16T14:56:06.732Z,42.43
2019-01-16T14:58:53.135Z,38.67
2019-01-16T15:01:49.400Z,36.37
2019-01-16T15:04:38.184Z,40.13
2019-01-16T15:07:08.609Z,45.03
2019-01-16T15:09:38.977Z,40.83
2019-01-16T15:12:21.364Z,53.43
2019-01-16T15:14:51.588Z,51.73
2019-01-16T15:17:23.439Z,51.47
2019-01-16T15:20:10.391Z,51.87
2019-01-16T15:22:51.020Z,48.00
2019-01-16T15:25:23.862Z,58.63
2019-01-16T15:28:04.346Z,58.27
2019-01-16T15:30:40.178Z,54.20
2019-01-16T15:33:30.424Z,55.77
2019-01-16T15:36:10.049Z,55.17
2019-01-16T15:38:40.209Z,62.30
2019-01-16T15:41:13.338Z,54.23
2019-01-16T15:43:49.953Z,58.90
2019-01-16T15:46:44.931Z,55.43
2019-01-16T15:52:30.236Z,62.53
2019-01-16T15:55:17.978Z,65.00
2019-01-16T15:57:49.655Z,62.63
2019-01-16T16:00:31.540Z,65.13
2019-01-16T16:03:38.188Z,55.20
2019-01-16T16:06:24.939Z,60.73
2019-01-16T16:09:13.072Z,60.20
2019-01-16T16:11:46.364Z,54.87
2019-01-16T16:14:21.500Z,53.63
2019-01-16T16:17:03.399Z,52.43
2019-01-16T16:19:57.817Z,52.23
2019-01-16T16:22:36.504Z,54.77
2019-01-16T16:25:11.437Z,50.80
2019-01-16T16:27:57.595Z,55.77
2019-01-16T16:30:47.341Z,46.67
2019-01-16T16:33:34.478Z,54.80
2019-01-16T16:36:17.028Z,47.97
2019-01-16T16:39:03.784Z,51.53
2019-01-16T16:41:53.394Z,52.60
2019-01-16T16:44:26.465Z,52.80
2019-01-16T16:47:08.707Z,54.37
2019-01-16T16:49:39.080Z,50.80
2019-01-16T16:52:27.586Z,50.00
2019-01-16T16:55:01.190Z,50.03
2019-01-16T16:57:37.371Z,49.67
2019-01-16T17:00:14.127Z,50.77
2019-01-16T17:02:49.361Z,50.30
2019-01-16T17:05:29.929Z,51.23
2019-01-16T17:08:20.755Z,50.43
2019-01-16T17:10:59.475Z,49.87
2019-01-16T17:13:56.111Z,55.57
2019-01-16T17:16:45.690Z,59.33
2019-01-16T17:19:36.594Z,60.50
2019-01-16T17:22:14.565Z,56.20
2019-01-16T17:25:10.530Z,57.77
2019-01-16T17:27:59.536Z,60.13
2019-01-16T17:30:43.362Z,59.50
2019-01-16T17:33:34.325Z,57.73
2019-01-16T17:36:08.342Z,58.87
2019-01-16T17:38:38.666Z,57.40
2019-01-16T17:41:09.104Z,60.50
2019-01-16T17:43:55.806Z,59.03
2019-01-16T17:46:32.153Z,57.50
2019-01-16T17:49:11.780Z,53.53
2019-01-16T17:52:01.893Z,59.03
2019-01-16T17:54:44.488Z,60.40
2019-01-16T17:57:31.609Z,56.23
2019-01-16T18:00:18.115Z,57.83
2019-01-16T18:02:51.085Z,55.37
2019-01-16T18:05:21.303Z,57.03
2019-01-16T18:07:51.617Z,58.10
2019-01-16T18:10:35.838Z,56.37
2019-01-16T18:13:11.931Z,55.43
2019-01-16T18:15:49.857Z,57.20
2019-01-16T18:18:25.602Z,51.80
2019-01-16T18:20:58.731Z,57.90
2019-01-16T18:23:29.213Z,61.33
2019-01-16T18:26:11.749Z,58.97
2019-01-16T18:28:41.928Z,58.07
2019-01-16T18:31:17.949Z,62.70
2019-01-16T18:33:51.139Z,57.20
2019-01-16T18:36:40.309Z,59.60
2019-01-16T18:39:10.998Z,54.27
2019-01-16T18:41:48.863Z,54.33
2019-01-16T18:44:22.138Z,61.03
2019-01-16T18:47:01.126Z,56.40
2019-01-16T18:49:34.456Z,56.83
2019-01-16T18:52:20.921Z,56.33
2019-01-16T18:54:51.456Z,56.10
2019-01-16T18:57:21.839Z,57.50
2019-01-16T18:59:56.809Z,57.77
2019-01-16T19:02:43.357Z,57.70
2019-01-16T19:05:15.491Z,61.87
2019-01-16T19:07:45.683Z,58.77
2019-01-16T19:10:27.804Z,57.57
2019-01-16T19:13:16.720Z,67.60
2019-01-16T19:15:55.593Z,62.57
2019-01-16T19:18:42.022Z,58.43
2019-01-16T19:21:19.911Z,55.17
2019-01-16T19:24:50.803Z,57.40
2019-01-16T19:27:08.069Z,57.83
2019-01-16T19:29:42.470Z,58.50
2019-01-16T19:32:16.995Z,55.37
2019-01-16T19:34:51.683Z,58.10
2019-01-16T19:48:03.856Z,59.57
2019-01-16T19:50:39.921Z,53.53
2019-01-16T19:53:24.439Z,59.07
2019-01-16T19:56:11.638Z,53.03
2019-01-16T19:58:58.106Z,56.13
2019-01-16T20:01:48.025Z,54.30
2019-01-16T20:04:31.926Z,56.43
2019-01-16T20:07:12.552Z,49.30
2019-01-16T20:09:46.616Z,56.63
2019-01-16T20:12:16.723Z,55.77
2019-01-16T20:14:52.779Z,54.80
2019-01-16T20:17:31.931Z,58.37
2019-01-16T20:20:25.095Z,53.90
2019-01-16T20:23:11.127Z,54.83
2019-01-16T20:25:47.406Z,55.10
2019-01-16T20:28:21.987Z,56.00
2019-01-16T20:30:53.617Z,54.60
2019-01-16T20:33:42.325Z,53.83
2019-01-16T20:36:16.516Z,53.13
2019-01-16T20:38:49.245Z,51.43
2019-01-16T20:41:28.582Z,53.67
2019-01-16T20:43:58.850Z,48.77
2019-01-16T20:49:21.209Z,53.63
2019-01-16T20:51:57.167Z,51.57
2019-01-16T20:54:33.452Z,51.03
2019-01-16T20:57:03.706Z,53.07
2019-01-16T20:59:43.467Z,52.03
2019-01-16T21:02:23.325Z,51.60
2019-01-16T21:04:55.210Z,47.67
2019-01-16T21:07:33.645Z,50.73
2019-01-16T21:10:11.507Z,49.23
2019-01-16T21:13:03.143Z,51.20
2019-01-16T21:15:36.872Z,53.23
2019-01-16T21:18:21.974Z,52.10
2019-01-16T21:20:56.550Z,48.33
2019-01-16T21:23:30.750Z,50.77
2019-01-16T21:26:09.734Z,52.53
2019-01-16T21:28:56.765Z,48.53
2019-01-16T21:31:43.310Z,46.90
2019-01-16T21:34:22.738Z,44.37
2019-01-16T21:37:04.953Z,46.97
2019-01-16T21:39:40.894Z,45.13
2019-01-16T21:42:26.386Z,44.73
2019-01-16T21:45:11.367Z,49.17
2019-01-16T21:47:56.859Z,47.40
2019-01-16T21:50:49.824Z,40.80
2019-01-16T21:53:30.516Z,43.00
2019-01-16T21:56:17.511Z,44.30
2019-01-16T21:59:04.149Z,42.63
2019-01-16T22:01:37.056Z,44.73
2019-01-16T22:04:13.120Z,46.20
2019-01-16T22:06:43.981Z,43.40
2019-01-16T22:09:45.603Z,45.83
2019-01-16T22:12:22.378Z,41.27
2019-01-16T22:14:52.774Z,46.03
2019-01-16T22:17:39.341Z,43.83
2019-01-16T22:20:10.080Z,44.10
2019-01-16T22:22:46.454Z,49.93
2019-01-16T22:25:16.808Z,46.73
2019-01-16T22:27:59.416Z,40.57
2019-01-16T22:30:29.696Z,48.13
2019-01-16T22:32:59.927Z,41.07
2019-01-16T22:35:34.358Z,48.97
2019-01-16T22:38:23.086Z,40.60
2019-01-16T22:40:56.332Z,49.73
2019-01-16T22:43:42.907Z,45.53
2019-01-16T22:46:19.260Z,43.40
2019-01-16T22:49:08.119Z,45.50
2019-01-16T22:51:41.849Z,49.20
2019-01-16T22:54:14.741Z,43.90
2019-01-16T22:56:47.386Z,52.03
2019-01-16T22:59:20.717Z,49.57
2019-01-16T23:01:57.081Z,46.97
2019-01-16T23:04:27.480Z,43.03
2019-01-16T23:06:57.738Z,52.70
2019-01-16T23:09:33.680Z,49.33
2019-01-16T23:12:03.934Z,47.97
2019-01-16T23:14:37.086Z,46.83
2019-01-16T23:17:07.326Z,48.80
2019-01-16T23:19:46.040Z,41.67
2019-01-16T23:22:22.276Z,44.17
2019-01-16T23:24:52.701Z,40.83
2019-01-16T23:27:22.931Z,42.10
2019-01-16T23:29:56.058Z,39.17
2019-01-16T23:32:38.690Z,46.30
2019-01-16T23:35:12.124Z,40.03
2019-01-16T23:37:42.392Z,40.40
2019-01-16T23:40:30.475Z,42.43
2019-01-16T23:43:03.531Z,42.83
2019-01-16T23:45:36.792Z,38.53
2019-01-16T23:48:26.368Z,40.27
2019-01-16T23:51:20.404Z,39.73
2019-01-16T23:53:57.937Z,36.83
2019-01-16T23:56:30.930Z,40.57
2019-01-16T23:59:27.674Z,41.60
